createdAt,value
2019-03-13T00:00:15.338Z,4.23
2019-03-13T00:02:49.051Z,4.24
2019-03-13T00:05:22.858Z,4.26
2019-03-13T00:07:56.440Z,4.29
2019-03-13T00:10:32.579Z,4.31
2019-03-13T00:13:05.798Z,4.35
2019-03-13T00:15:39.491Z,4.34
2019-03-13T00:18:13.306Z,4.34
2019-03-13T00:20:47.213Z,4.38
2019-03-13T00:23:19.951Z,4.44
2019-03-13T00:25:54.470Z,4.47
2019-03-13T00:28:28.654Z,4.48
2019-03-13T00:31:02.386Z,4.50
2019-03-13T00:33:35.829Z,4.52
2019-03-13T00:36:09.151Z,4.55
2019-03-13T00:38:43.109Z,4.59
2019-03-13T00:41:17.378Z,4.56
2019-03-13T00:43:51.594Z,4.57
2019-03-13T00:46:24.535Z,4.59
2019-03-13T00:48:58.799Z,4.58
2019-03-13T00:51:32.996Z,4.61
2019-03-13T00:54:06.001Z,4.65
2019-03-13T00:56:40.213Z,4.69
2019-03-13T00:59:14.636Z,4.75
2019-03-13T01:01:56.416Z,4.75
2019-03-13T01:04:40.381Z,4.79
2019-03-13T01:07:14.693Z,4.81
2019-03-13T01:09:49.005Z,4.81
2019-03-13T01:12:23.132Z,4.83
2019-03-13T01:14:57.370Z,4.86
2019-03-13T01:17:31.557Z,4.89
2019-03-13T01:20:04.829Z,4.91
2019-03-13T01:22:39.059Z,4.95
2019-03-13T01:25:13.076Z,5.00
2019-03-13T01:27:47.294Z,5.02
2019-03-13T01:30:21.475Z,5.07
2019-03-13T01:33:03.159Z,5.08
2019-03-13T01:35:40.383Z,5.13
2019-03-13T01:38:14.016Z,5.12
2019-03-13T01:40:48.029Z,5.13
2019-03-13T01:43:21.963Z,5.17
2019-03-13T01:45:57.163Z,5.22
2019-03-13T01:48:31.204Z,5.26
2019-03-13T01:51:04.809Z,5.28
2019-03-13T01:53:38.905Z,5.31
2019-03-13T01:56:13.139Z,5.30
2019-03-13T01:58:47.132Z,5.28
2019-03-13T02:01:21.160Z,5.30
2019-03-13T02:03:54.777Z,5.34
2019-03-13T02:06:28.860Z,5.33
2019-03-13T02:09:02.812Z,5.35
2019-03-13T02:11:36.818Z,5.35
2019-03-13T02:14:10.501Z,5.38
2019-03-13T02:16:44.532Z,5.39
2019-03-13T02:19:19.237Z,5.36
2019-03-13T02:21:53.236Z,5.36
2019-03-13T02:24:27.276Z,5.39
2019-03-13T02:27:01.860Z,5.42
2019-03-13T02:29:35.895Z,5.41
2019-03-13T02:32:09.602Z,5.44
2019-03-13T02:34:43.730Z,5.45
2019-03-13T02:37:17.580Z,5.46
2019-03-13T02:39:51.624Z,5.47
2019-03-13T02:42:25.272Z,5.47
2019-03-13T02:44:58.944Z,5.49
2019-03-13T02:47:33.358Z,5.53
2019-03-13T02:50:07.231Z,5.53
2019-03-13T02:52:40.990Z,5.57
2019-03-13T02:55:14.264Z,5.58
2019-03-13T02:57:48.417Z,5.57
2019-03-13T03:00:26.704Z,5.59
2019-03-13T03:03:02.454Z,5.59
2019-03-13T03:05:36.168Z,5.58
2019-03-13T03:08:10.147Z,5.61
2019-03-13T03:10:44.393Z,5.64
2019-03-13T03:13:18.518Z,5.65
2019-03-13T03:15:52.734Z,5.66
2019-03-13T03:18:26.311Z,5.65
2019-03-13T03:21:00.476Z,5.66
2019-03-13T03:23:34.153Z,5.63
2019-03-13T03:26:08.011Z,5.61
2019-03-13T03:28:41.654Z,5.64
2019-03-13T03:31:15.947Z,5.66
2019-03-13T03:34:05.182Z,5.66
2019-03-13T03:36:38.449Z,5.65
2019-03-13T03:39:12.295Z,5.62
2019-03-13T03:41:46.324Z,5.66
2019-03-13T03:44:20.355Z,5.68
2019-03-13T03:46:54.478Z,5.69
2019-03-13T03:49:29.312Z,5.74
2019-03-13T03:52:03.403Z,5.72
2019-03-13T03:54:37.007Z,5.75
2019-03-13T03:57:11.223Z,5.77
2019-03-13T03:59:44.785Z,5.76
2019-03-13T04:02:18.411Z,5.76
2019-03-13T04:04:52.738Z,5.75
2019-03-13T04:07:26.834Z,5.73
2019-03-13T04:10:00.780Z,5.75
2019-03-13T04:12:34.765Z,5.76
2019-03-13T04:15:08.279Z,5.76
2019-03-13T04:17:42.308Z,5.78
2019-03-13T04:20:15.182Z,5.80
2019-03-13T04:22:48.866Z,5.81
2019-03-13T04:25:53.304Z,5.79
2019-03-13T04:28:27.300Z,5.78
2019-03-13T04:31:01.012Z,5.79
2019-03-13T04:33:34.139Z,5.81
2019-03-13T04:36:08.453Z,5.85
2019-03-13T04:38:42.524Z,5.88
2019-03-13T04:41:16.552Z,5.89
2019-03-13T04:43:50.667Z,5.91
2019-03-13T04:46:24.264Z,5.91
2019-03-13T04:48:58.479Z,5.91
2019-03-13T04:51:32.581Z,5.96
2019-03-13T04:54:06.197Z,5.95
2019-03-13T04:56:41.407Z,5.99
2019-03-13T04:59:15.429Z,6.01
2019-03-13T05:01:49.252Z,6.03
2019-03-13T05:04:23.252Z,6.04
2019-03-13T05:06:57.382Z,6.11
2019-03-13T05:09:41.622Z,6.11
2019-03-13T05:12:15.217Z,6.12
2019-03-13T05:14:49.244Z,6.13
2019-03-13T05:17:23.342Z,6.17
2019-03-13T05:19:57.369Z,6.17
2019-03-13T05:22:31.471Z,6.21
2019-03-13T05:25:05.208Z,6.24
2019-03-13T05:27:39.217Z,6.24
2019-03-13T05:30:13.103Z,6.25
2019-03-13T05:32:47.962Z,6.27
2019-03-13T05:35:22.037Z,6.27
2019-03-13T05:37:57.121Z,6.30
2019-03-13T05:40:31.836Z,6.34
2019-03-13T05:43:05.515Z,6.36
2019-03-13T05:45:40.013Z,6.40
2019-03-13T05:48:14.139Z,6.43
2019-03-13T05:50:48.887Z,6.48
2019-03-13T05:53:21.737Z,6.49
2019-03-13T05:55:55.183Z,6.49
2019-03-13T05:58:29.385Z,6.50
2019-03-13T06:01:02.444Z,6.51
2019-03-13T06:03:36.646Z,6.55
2019-03-13T06:06:10.936Z,6.56
2019-03-13T06:08:45.784Z,6.61
2019-03-13T06:11:20.485Z,6.65
2019-03-13T06:13:54.578Z,6.69
2019-03-13T06:16:28.607Z,6.72
2019-03-13T06:19:02.786Z,6.71
2019-03-13T06:21:36.397Z,6.70
2019-03-13T06:24:10.172Z,6.70
2019-03-13T06:26:44.356Z,6.71
2019-03-13T06:29:17.812Z,6.66
2019-03-13T06:31:51.026Z,6.68
2019-03-13T06:34:25.216Z,6.72
2019-03-13T06:36:58.896Z,6.69
2019-03-13T06:39:32.671Z,6.71
2019-03-13T06:42:05.631Z,6.73
2019-03-13T06:44:38.678Z,6.75
2019-03-13T06:47:12.453Z,6.74
2019-03-13T06:49:46.237Z,6.76
2019-03-13T06:52:19.846Z,6.76
2019-03-13T06:54:54.602Z,6.79
2019-03-13T06:57:28.693Z,6.80
2019-03-13T07:00:30.193Z,6.76
2019-03-13T07:03:15.457Z,6.73
2019-03-13T07:06:10.856Z,6.79
2019-03-13T07:09:12.468Z,6.75
2019-03-13T07:12:08.559Z,6.68
2019-03-13T07:14:57.463Z,6.68
2019-03-13T07:17:48.532Z,6.71
2019-03-13T07:20:43.995Z,6.66
2019-03-13T07:23:34.054Z,6.66
2019-03-13T07:26:32.107Z,6.66
2019-03-13T07:29:23.816Z,6.64
2019-03-13T07:32:09.408Z,6.67
2019-03-13T07:34:52.511Z,6.65
2019-03-13T07:37:38.428Z,6.61
2019-03-13T07:40:36.679Z,6.66
2019-03-13T07:43:33.642Z,6.63
2019-03-13T07:46:28.629Z,6.68
2019-03-13T07:49:17.764Z,6.72
2019-03-13T07:52:25.456Z,6.57
2019-03-13T07:55:24.169Z,6.44
2019-03-13T07:58:25.021Z,6.45
2019-03-13T08:01:15.142Z,6.37
2019-03-13T08:03:53.861Z,6.36
2019-03-13T08:06:58.442Z,6.39
2019-03-13T08:09:50.679Z,6.34
2019-03-13T08:12:43.080Z,6.33
2019-03-13T08:15:34.807Z,6.34
2019-03-13T08:18:24.716Z,6.41
2019-03-13T08:21:18.680Z,6.40
2019-03-13T08:24:19.353Z,6.37
2019-03-13T08:26:58.198Z,6.43
2019-03-13T08:29:45.757Z,6.45
2019-03-13T08:32:35.082Z,6.53
2019-03-13T08:35:28.693Z,6.56
2019-03-13T08:38:10.986Z,6.57
2019-03-13T08:41:01.802Z,6.62
2019-03-13T08:43:52.255Z,6.65
2019-03-13T08:46:42.443Z,6.66
2019-03-13T08:49:39.823Z,6.70
2019-03-13T08:52:36.890Z,6.70
2019-03-13T08:55:29.449Z,6.70
2019-03-13T08:58:27.260Z,6.68
2019-03-13T09:01:19.338Z,6.66
2019-03-13T09:04:19.874Z,6.64
2019-03-13T09:07:10.542Z,6.66
2019-03-13T09:09:53.014Z,6.63
2019-03-13T09:12:48.009Z,6.58
2019-03-13T09:15:37.803Z,6.52
2019-03-13T09:18:38.096Z,6.53
2019-03-13T09:21:25.952Z,6.54
2019-03-13T09:24:23.426Z,6.59
2019-03-13T09:27:16.830Z,6.66
2019-03-13T09:30:10.775Z,6.73
2019-03-13T09:32:52.907Z,6.77
2019-03-13T09:35:40.575Z,6.90
2019-03-13T09:38:25.652Z,6.98
2019-03-13T09:41:19.953Z,7.10
2019-03-13T09:44:17.193Z,7.18
2019-03-13T09:47:26.807Z,7.25
2019-03-13T09:50:11.502Z,7.34
2019-03-13T09:53:03.959Z,7.48
2019-03-13T09:55:55.558Z,7.56
2019-03-13T09:58:46.385Z,7.60
2019-03-13T10:01:34.736Z,7.66
2019-03-13T10:04:26.339Z,7.68
2019-03-13T10:07:15.545Z,7.68
2019-03-13T10:09:55.580Z,7.74
2019-03-13T10:12:37.407Z,7.71
2019-03-13T10:15:15.460Z,7.68
2019-03-13T10:17:57.747Z,7.69
2019-03-13T10:20:47.021Z,7.68
2019-03-13T10:23:29.457Z,7.67
2019-03-13T10:26:33.271Z,7.78
2019-03-13T10:29:28.394Z,7.87
2019-03-13T10:32:13.157Z,7.93
2019-03-13T10:35:13.876Z,8.03
2019-03-13T10:38:20.480Z,8.18
2019-03-13T10:41:07.810Z,8.27
2019-03-13T10:44:09.949Z,8.47
2019-03-13T10:46:55.748Z,8.65
2019-03-13T10:49:35.259Z,8.84
2019-03-13T10:52:12.996Z,8.97
2019-03-13T10:55:10.059Z,9.01
2019-03-13T10:58:08.244Z,9.06
2019-03-13T11:01:18.541Z,9.15
2019-03-13T11:04:13.526Z,9.16
2019-03-13T11:06:55.293Z,9.16
2019-03-13T11:09:41.302Z,9.16
2019-03-13T11:12:28.823Z,9.10
2019-03-13T11:15:07.855Z,9.18
2019-03-13T11:18:05.608Z,9.15
2019-03-13T11:20:59.399Z,9.21
2019-03-13T11:23:53.635Z,9.38
2019-03-13T11:26:36.011Z,9.53
2019-03-13T11:29:33.050Z,9.67
2019-03-13T11:32:20.858Z,9.82
2019-03-13T11:35:14.872Z,9.90
2019-03-13T11:38:15.934Z,9.88
2019-03-13T11:41:10.191Z,10.07
2019-03-13T11:44:00.239Z,10.09
2019-03-13T11:47:10.162Z,10.71
2019-03-13T11:50:00.799Z,10.80
2019-03-13T11:52:50.770Z,10.32
2019-03-13T11:55:57.469Z,10.17
2019-03-13T11:58:58.982Z,10.08
2019-03-13T12:01:46.376Z,10.10
2019-03-13T12:04:25.716Z,10.09
2019-03-13T12:07:17.337Z,10.56
2019-03-13T12:10:12.166Z,11.32
2019-03-13T12:12:56.398Z,12.06
2019-03-13T12:15:59.943Z,12.90
2019-03-13T12:18:58.106Z,13.33
2019-03-13T12:21:45.540Z,13.69
2019-03-13T12:24:29.162Z,13.97
2019-03-13T12:27:20.494Z,14.35
2019-03-13T12:30:24.743Z,14.60
2019-03-13T12:33:15.906Z,15.00
2019-03-13T12:36:10.542Z,14.70
2019-03-13T12:38:55.678Z,13.85
2019-03-13T12:41:47.324Z,13.77
2019-03-13T12:44:42.616Z,13.79
2019-03-13T12:47:38.042Z,13.56
2019-03-13T12:50:23.834Z,13.41
2019-03-13T12:53:04.601Z,13.29
2019-03-13T12:55:55.412Z,12.81
2019-03-13T12:58:57.197Z,12.59
2019-03-13T13:01:55.351Z,13.45
2019-03-13T13:04:49.459Z,14.17
2019-03-13T13:07:49.772Z,13.93
2019-03-13T13:10:43.028Z,13.57
2019-03-13T13:13:42.431Z,13.23
2019-03-13T13:16:33.295Z,13.49
2019-03-13T13:19:06.654Z,14.21
2019-03-13T13:21:39.423Z,14.02
2019-03-13T13:24:11.912Z,14.24
2019-03-13T13:26:44.413Z,14.60
2019-03-13T13:29:17.783Z,14.97
2019-03-13T13:31:50.612Z,14.55
2019-03-13T13:34:23.843Z,14.44
2019-03-13T13:36:56.908Z,14.19
2019-03-13T13:39:30.063Z,14.15
2019-03-13T13:42:02.551Z,14.12
2019-03-13T13:44:35.609Z,13.71
2019-03-13T13:47:08.571Z,13.28
2019-03-13T13:49:41.397Z,13.19
2019-03-13T13:52:14.950Z,13.35
2019-03-13T13:54:48.595Z,14.07
2019-03-13T13:57:21.724Z,14.48
2019-03-13T13:59:54.382Z,14.75
2019-03-13T14:02:33.862Z,15.37
2019-03-13T14:05:07.069Z,15.49
2019-03-13T14:07:41.581Z,15.89
2019-03-13T14:10:14.222Z,15.81
2019-03-13T14:12:46.156Z,15.61
2019-03-13T14:15:18.974Z,15.62
2019-03-13T14:17:51.791Z,15.39
2019-03-13T14:20:24.751Z,15.34
2019-03-13T14:22:57.168Z,15.33
2019-03-13T14:25:29.617Z,15.18
2019-03-13T14:28:02.055Z,15.02
2019-03-13T14:30:34.061Z,15.34
2019-03-13T14:33:07.996Z,15.54
2019-03-13T14:35:40.398Z,16.21
2019-03-13T14:38:13.482Z,16.40
2019-03-13T14:40:46.481Z,16.33
2019-03-13T14:43:19.861Z,16.21
2019-03-13T14:45:52.748Z,15.80
2019-03-13T14:48:26.482Z,15.33
2019-03-13T14:50:59.320Z,14.82
2019-03-13T14:53:32.082Z,14.82
2019-03-13T14:56:05.555Z,15.15
2019-03-13T14:58:38.975Z,15.32
2019-03-13T15:01:11.499Z,14.79
2019-03-13T15:03:44.832Z,14.60
2019-03-13T15:06:16.829Z,14.29
2019-03-13T15:08:49.716Z,13.83
2019-03-13T15:11:22.257Z,13.46
2019-03-13T15:13:54.951Z,13.25
2019-03-13T15:16:26.934Z,12.96
2019-03-13T15:18:59.525Z,12.68
2019-03-13T15:21:32.262Z,12.54
2019-03-13T15:24:05.138Z,12.27
2019-03-13T15:26:37.917Z,11.91
2019-03-13T15:29:10.450Z,11.75
2019-03-13T15:31:42.412Z,11.67
2019-03-13T15:34:14.920Z,11.54
2019-03-13T15:36:46.822Z,11.36
2019-03-13T15:39:19.180Z,11.23
2019-03-13T15:41:51.710Z,11.08
2019-03-13T15:44:24.942Z,11.08
2019-03-13T15:46:57.362Z,10.96
2019-03-13T15:49:30.240Z,10.90
2019-03-13T15:52:03.778Z,10.84
2019-03-13T15:54:36.378Z,10.79
2019-03-13T15:57:09.266Z,10.73
2019-03-13T15:59:42.268Z,10.75
2019-03-13T16:02:14.601Z,10.69
2019-03-13T16:04:47.102Z,10.66
2019-03-13T16:07:19.965Z,10.69
2019-03-13T16:09:52.504Z,10.70
2019-03-13T16:12:25.363Z,10.63
2019-03-13T16:14:57.787Z,10.61
2019-03-13T16:17:30.720Z,10.61
2019-03-13T16:20:03.549Z,10.49
2019-03-13T16:22:37.066Z,10.44
2019-03-13T16:25:09.678Z,10.42
2019-03-13T16:27:42.619Z,10.38
2019-03-13T16:30:19.032Z,10.24
2019-03-13T16:32:51.929Z,10.14
2019-03-13T16:35:26.476Z,10.06
2019-03-13T16:37:59.434Z,10.03
2019-03-13T16:40:32.459Z,9.98
2019-03-13T16:43:04.926Z,9.89
2019-03-13T16:45:38.676Z,9.77
2019-03-13T16:48:12.056Z,9.75
2019-03-13T16:50:45.013Z,9.69
2019-03-13T16:53:18.671Z,9.57
2019-03-13T16:55:52.939Z,9.46
2019-03-13T16:58:26.961Z,9.36
2019-03-13T17:00:59.674Z,9.28
2019-03-13T17:03:33.249Z,9.23
2019-03-13T17:06:07.386Z,9.20
2019-03-13T17:08:41.504Z,9.17
2019-03-13T17:11:15.359Z,9.15
2019-03-13T17:13:49.444Z,9.13
2019-03-13T17:16:23.683Z,9.07
2019-03-13T17:18:57.749Z,9.00
2019-03-13T17:21:33.095Z,8.99
2019-03-13T17:24:07.303Z,8.98
2019-03-13T17:26:41.364Z,8.96
2019-03-13T17:29:15.422Z,8.94
2019-03-13T17:31:48.726Z,8.84
2019-03-13T17:34:23.883Z,8.73
2019-03-13T17:36:58.198Z,8.63
2019-03-13T17:39:33.827Z,8.63
2019-03-13T17:42:08.381Z,8.65
2019-03-13T17:44:42.489Z,8.66
2019-03-13T17:47:17.217Z,8.64
2019-03-13T17:49:51.319Z,8.61
2019-03-13T17:52:25.531Z,8.58
2019-03-13T17:54:59.218Z,8.54
2019-03-13T17:57:33.495Z,8.52
2019-03-13T18:00:07.517Z,8.50
2019-03-13T18:02:41.019Z,8.49
2019-03-13T18:05:13.808Z,8.49
2019-03-13T18:07:47.780Z,8.45
2019-03-13T18:10:21.167Z,8.46
2019-03-13T18:12:53.122Z,8.44
2019-03-13T18:15:25.083Z,8.40
2019-03-13T18:17:57.484Z,8.37
2019-03-13T18:20:30.455Z,8.32
2019-03-13T18:23:02.873Z,8.29
2019-03-13T18:25:35.946Z,8.29
2019-03-13T18:28:09.522Z,8.24
2019-03-13T18:30:42.438Z,8.17
2019-03-13T18:33:15.804Z,8.16
2019-03-13T18:35:49.409Z,8.13
2019-03-13T18:38:23.567Z,8.07
2019-03-13T18:40:55.525Z,8.04
2019-03-13T18:43:28.066Z,7.99
2019-03-13T18:46:01.466Z,7.90
2019-03-13T18:48:34.321Z,7.86
2019-03-13T18:51:06.784Z,7.80
2019-03-13T18:53:40.625Z,7.80
2019-03-13T18:56:13.513Z,7.80
2019-03-13T18:58:46.430Z,7.79
2019-03-13T19:01:19.280Z,7.76
2019-03-13T19:03:52.131Z,7.75
2019-03-13T19:06:24.879Z,7.73
2019-03-13T19:08:57.374Z,7.68
2019-03-13T19:11:30.337Z,7.66
2019-03-13T19:14:03.377Z,7.63
2019-03-13T19:16:36.186Z,7.62
2019-03-13T19:19:08.635Z,7.63
2019-03-13T19:21:41.171Z,7.61
2019-03-13T19:24:14.150Z,7.61
2019-03-13T19:26:47.046Z,7.58
2019-03-13T19:29:19.478Z,7.54
2019-03-13T19:31:54.761Z,7.50
2019-03-13T19:34:29.780Z,7.48
2019-03-13T19:37:02.839Z,7.42
2019-03-13T19:39:35.691Z,7.37
2019-03-13T19:42:07.767Z,7.33
2019-03-13T19:44:41.166Z,7.30
2019-03-13T19:47:13.759Z,7.29
2019-03-13T19:49:46.261Z,7.29
2019-03-13T19:52:20.074Z,7.29
2019-03-13T19:54:53.384Z,7.30
2019-03-13T19:57:26.289Z,7.30
2019-03-13T19:59:59.269Z,7.27
2019-03-13T20:02:31.724Z,7.27
2019-03-13T20:05:04.117Z,7.23
2019-03-13T20:07:36.949Z,7.22
2019-03-13T20:10:15.534Z,7.17
2019-03-13T20:12:49.901Z,7.15
2019-03-13T20:15:26.757Z,7.14
2019-03-13T20:17:59.746Z,7.07
2019-03-13T20:20:36.141Z,7.06
2019-03-13T20:23:08.909Z,7.03
2019-03-13T20:25:42.776Z,7.03
2019-03-13T20:28:15.923Z,7.00
2019-03-13T20:30:50.718Z,6.99
2019-03-13T20:33:24.714Z,6.96
2019-03-13T20:35:58.482Z,6.93
2019-03-13T20:38:31.029Z,6.90
2019-03-13T20:41:03.811Z,6.86
2019-03-13T20:43:37.509Z,6.82
2019-03-13T20:46:09.916Z,6.76
2019-03-13T20:48:43.209Z,6.73
2019-03-13T20:51:15.666Z,6.73
2019-03-13T20:53:48.130Z,6.70
2019-03-13T20:56:22.040Z,6.70
2019-03-13T20:58:54.930Z,6.72
2019-03-13T21:01:28.433Z,6.71
2019-03-13T21:04:01.885Z,6.72
2019-03-13T21:06:35.501Z,6.73
2019-03-13T21:09:10.105Z,6.73
2019-03-13T21:11:44.027Z,6.71
2019-03-13T21:14:17.563Z,6.74
2019-03-13T21:16:50.481Z,6.73
2019-03-13T21:19:22.511Z,6.72
2019-03-13T21:21:55.951Z,6.70
2019-03-13T21:24:29.559Z,6.71
2019-03-13T21:27:01.971Z,6.69
2019-03-13T21:29:35.440Z,6.68
2019-03-13T21:32:08.562Z,6.68
2019-03-13T21:34:42.680Z,6.59
2019-03-13T21:37:16.380Z,6.51
2019-03-13T21:39:50.497Z,6.47
2019-03-13T21:42:24.408Z,6.46
2019-03-13T21:44:58.748Z,6.49
2019-03-13T21:47:32.431Z,6.48
2019-03-13T21:50:07.979Z,6.48
2019-03-13T21:52:43.014Z,6.48
2019-03-13T21:55:16.715Z,6.51
2019-03-13T21:57:52.210Z,6.52
2019-03-13T22:00:27.103Z,6.53
2019-03-13T22:03:01.036Z,6.52
2019-03-13T22:05:35.121Z,6.49
2019-03-13T22:08:08.513Z,6.49
2019-03-13T22:10:42.314Z,6.44
2019-03-13T22:13:16.476Z,6.38
2019-03-13T22:15:49.972Z,6.36
2019-03-13T22:18:23.759Z,6.36
2019-03-13T22:20:57.419Z,6.34
2019-03-13T22:23:31.433Z,6.29
2019-03-13T22:26:05.663Z,6.30
2019-03-13T22:28:39.724Z,6.30
2019-03-13T22:31:13.513Z,6.28
2019-03-13T22:33:47.626Z,6.28
2019-03-13T22:36:20.999Z,6.26
2019-03-13T22:38:54.281Z,6.25
2019-03-13T22:41:27.900Z,6.22
2019-03-13T22:44:01.951Z,6.19
2019-03-13T22:46:35.915Z,6.17
2019-03-13T22:49:10.356Z,6.18
2019-03-13T22:51:43.933Z,6.17
2019-03-13T22:54:20.222Z,6.15
2019-03-13T22:56:54.716Z,6.16
2019-03-13T22:59:28.819Z,6.17
2019-03-13T23:02:06.247Z,6.20
2019-03-13T23:04:40.618Z,6.19
2019-03-13T23:07:17.014Z,6.19
2019-03-13T23:09:50.545Z,6.18
2019-03-13T23:12:25.780Z,6.23
2019-03-13T23:15:00.419Z,6.23
2019-03-13T23:17:36.081Z,6.24
2019-03-13T23:20:09.789Z,6.22
2019-03-13T23:22:45.308Z,6.26
2019-03-13T23:25:19.539Z,6.27
2019-03-13T23:27:53.383Z,6.29
2019-03-13T23:30:27.227Z,6.28
2019-03-13T23:33:00.988Z,6.28
2019-03-13T23:35:35.243Z,6.29
2019-03-13T23:38:09.458Z,6.32
2019-03-13T23:40:44.094Z,6.32
2019-03-13T23:43:18.209Z,6.36
2019-03-13T23:45:52.025Z,6.42
2019-03-13T23:48:26.215Z,6.44
2019-03-13T23:51:00.623Z,6.47
2019-03-13T23:53:34.654Z,6.45
2019-03-13T23:56:08.660Z,6.47
2019-03-13T23:58:42.347Z,6.50
